الصفحة الرئيسية
METAR-TAF:

METAR-TAF

مطار :

إل سنترو, كاليفورنيا, الولايات المتحدة

دائرة عرض: 32-49-30N, خط طول: 115-39-38W, ارتفاع: 13 متر

مراقبة الطقس الحالي

تاريخ ووقت الإصدار 42 دقيقة قبل الساعة 07:56UTC
ريح 13 عقدة من الغرب/الجنوب الغربي
درجة الحرارة 14°درجة مئوية
الرطوبة 47%
ضغط 1017 hPa
الرؤية: 16.1 كم
سماء صافية

METAR: KNJK 210756Z AUTO 25013KT 10SM CLR 14/03 A3003 RMK AO2 SLP184 T01440033 402500144

زمن: 01:38 (08:38 UTC)

توقعات

التوقعات صالحة من21 الساعة 07 UTC إلى 22 الساعة 07 UTC
ريح 19 عقدة من الغرب/الجنوب الغربي تتزايد حتى 30 عقدة
الرؤية 10 كم أو أكثر
غيوم قليلة على ارتفاع 10000 قدم
غيوم قليلة على ارتفاع 20000 قدم
مؤقت
من 21 الساعة 07 UTC إلى 21 الساعة 13 UTC
ريح 13 عقدة من الغرب/الجنوب الغربي
الرؤية: 2115 متر

TAF: KNJK 2107/2207 25019G30KT 9999 FEW100 FEW200 QNH2985INS TEMPO 2107/2113 24013KT LAST NO AMDS AFT 2107 NEXT 2115 T11/2113Z T22/2123Z FS30137

أرصاد الطقس والتوقعات من أكثر من 4000 مطار (تقارير الطقس للمطار METAR والتنبؤ بالطقس بالمطارTAF).

المحطات المتاحة هي النقط الصفراء والحمراء على الخريطة.

حرك المؤشر فوق النقطة لمعرفة اسم المحطة.

ثم انقر لمعرفة أرصاد وتوقعات الطقس.

لتغيير الخارطة: اضغط على الأزرار الخضراء مع رمز الصليب الأسود للتكبير. على الزر الأخضر مع شرطة للتصغير، أو على الأسهم الخضراء للخرائط المجاورة.


METAR-TAF: